createdAt,value
2017-12-02T00:01:38.621Z,0.50
2017-12-02T00:04:08.776Z,0.50
2017-12-02T00:06:36.261Z,0.50
2017-12-02T00:09:03.759Z,0.50
2017-12-02T00:11:31.239Z,0.50
2017-12-02T00:13:58.738Z,0.50
2017-12-02T00:16:26.229Z,0.50
2017-12-02T00:18:53.736Z,0.40
2017-12-02T00:21:21.220Z,0.50
2017-12-02T00:23:48.723Z,0.40
2017-12-02T00:26:16.204Z,0.50
2017-12-02T00:28:43.711Z,0.50
2017-12-02T00:31:11.200Z,0.50
2017-12-02T00:33:39.479Z,0.40
2017-12-02T00:36:07.003Z,0.30
2017-12-02T00:38:34.508Z,0.40
2017-12-02T00:41:01.985Z,0.40
2017-12-02T00:43:29.483Z,0.40
2017-12-02T00:45:57.767Z,0.40
2017-12-02T00:48:26.039Z,0.40
2017-12-02T00:50:53.533Z,0.30
2017-12-02T00:53:21.803Z,0.40
2017-12-02T00:55:49.292Z,0.30
2017-12-02T00:58:17.555Z,0.40
2017-12-02T01:00:45.032Z,0.40
2017-12-02T01:03:12.533Z,0.50
2017-12-02T01:05:40.021Z,0.50
2017-12-02T01:08:07.531Z,0.50
2017-12-02T01:10:35.016Z,0.50
2017-12-02T01:13:02.530Z,0.60
2017-12-02T01:15:30.019Z,0.50
2017-12-02T01:17:57.519Z,0.50
2017-12-02T01:20:24.999Z,0.50
2017-12-02T01:22:53.268Z,0.70
2017-12-02T01:25:20.755Z,0.60
2017-12-02T01:27:48.250Z,0.80
2017-12-02T01:30:15.731Z,0.80
2017-12-02T01:32:43.232Z,0.90
2017-12-02T01:35:10.712Z,0.80
2017-12-02T01:37:38.215Z,0.80
2017-12-02T01:40:06.476Z,0.60
2017-12-02T01:42:33.968Z,0.60
2017-12-02T01:45:01.457Z,0.60
2017-12-02T01:47:28.960Z,0.70
2017-12-02T01:49:56.443Z,0.70
2017-12-02T01:52:23.940Z,0.60
2017-12-02T01:54:51.424Z,0.60
2017-12-02T01:57:19.695Z,0.40
2017-12-02T01:59:47.175Z,0.40
2017-12-02T02:02:15.444Z,0.50
2017-12-02T02:04:42.931Z,0.40
2017-12-02T02:07:11.196Z,0.50
2017-12-02T02:09:38.670Z,0.40
2017-12-02T02:12:06.193Z,0.50
2017-12-02T02:14:33.679Z,0.50
2017-12-02T02:17:01.159Z,0.50
2017-12-02T02:19:28.663Z,0.60
2017-12-02T02:21:56.140Z,0.70
2017-12-02T02:24:24.407Z,0.70
2017-12-02T02:26:51.887Z,0.60
2017-12-02T02:29:19.391Z,0.60
2017-12-02T02:31:46.888Z,0.60
2017-12-02T02:34:14.383Z,0.50
2017-12-02T02:36:41.873Z,0.50
2017-12-02T02:39:09.389Z,0.50
2017-12-02T02:41:36.880Z,0.40
2017-12-02T02:44:04.382Z,0.40
2017-12-02T02:46:31.873Z,0.30
2017-12-02T02:49:00.515Z,0.30
2017-12-02T02:51:28.002Z,0.20
2017-12-02T02:53:55.506Z,0.40
2017-12-02T02:56:23.763Z,0.60
2017-12-02T02:58:51.273Z,0.50
2017-12-02T03:01:18.763Z,0.60
2017-12-02T03:03:46.255Z,0.60
2017-12-02T03:06:13.740Z,0.60
2017-12-02T03:08:41.241Z,0.70
2017-12-02T03:11:09.523Z,0.70
2017-12-02T03:13:37.804Z,0.70
2017-12-02T03:16:05.292Z,0.60
2017-12-02T03:18:33.567Z,0.80
2017-12-02T03:21:01.819Z,0.90
2017-12-02T03:23:29.328Z,0.80
2017-12-02T03:25:57.583Z,0.90
2017-12-02T03:28:25.094Z,0.80
2017-12-02T03:30:53.360Z,1.00
2017-12-02T03:33:20.869Z,0.90
2017-12-02T03:35:48.352Z,1.00
2017-12-02T03:38:15.854Z,1.00
2017-12-02T03:40:43.334Z,1.00
2017-12-02T03:43:10.856Z,1.10
2017-12-02T03:45:38.336Z,1.00
2017-12-02T03:48:05.837Z,1.00
2017-12-02T03:50:33.320Z,1.10
2017-12-02T03:53:00.881Z,1.10
2017-12-02T03:55:28.327Z,1.00
2017-12-02T03:57:55.823Z,1.00
2017-12-02T04:00:23.312Z,1.00
2017-12-02T04:02:50.815Z,1.00
2017-12-02T04:05:18.313Z,0.90
2017-12-02T04:07:45.830Z,0.90
2017-12-02T04:10:14.076Z,0.90
2017-12-02T04:12:41.579Z,0.80
2017-12-02T04:15:09.073Z,0.90
2017-12-02T04:17:36.605Z,1.00
2017-12-02T04:20:04.091Z,1.00
2017-12-02T04:22:31.584Z,1.00
2017-12-02T04:24:59.092Z,1.00
2017-12-02T04:27:26.572Z,1.00
2017-12-02T04:29:54.080Z,1.00
2017-12-02T04:32:22.323Z,0.90
2017-12-02T04:34:49.824Z,0.90
2017-12-02T04:37:17.299Z,0.90
2017-12-02T04:39:44.801Z,0.90
2017-12-02T04:42:12.283Z,0.80
2017-12-02T04:44:39.791Z,0.70
2017-12-02T04:47:07.276Z,0.70
2017-12-02T04:49:34.776Z,0.70
2017-12-02T04:52:02.260Z,0.70
2017-12-02T04:54:29.766Z,0.70
2017-12-02T04:56:57.252Z,0.70
2017-12-02T04:59:24.761Z,0.70
2017-12-02T05:01:52.256Z,0.70
2017-12-02T05:04:19.755Z,0.70
2017-12-02T05:06:47.243Z,0.80
2017-12-02T05:09:14.743Z,0.70
2017-12-02T05:11:42.231Z,0.80
2017-12-02T05:14:09.740Z,0.70
2017-12-02T05:16:37.223Z,0.80
2017-12-02T05:19:04.736Z,0.70
2017-12-02T05:21:32.224Z,0.70
2017-12-02T05:23:59.730Z,0.70
2017-12-02T05:26:27.213Z,0.80
2017-12-02T05:28:55.486Z,0.80
2017-12-02T05:31:22.967Z,0.80
2017-12-02T05:33:51.236Z,0.70
2017-12-02T05:36:18.723Z,0.60
2017-12-02T05:38:46.991Z,0.70
2017-12-02T05:41:14.488Z,0.70
2017-12-02T05:43:42.760Z,0.70
2017-12-02T05:46:10.240Z,0.60
2017-12-02T05:48:38.511Z,0.60
2017-12-02T05:51:05.992Z,0.60
2017-12-02T05:53:33.529Z,0.60
2017-12-02T05:56:01.016Z,0.60
2017-12-02T05:58:28.524Z,0.50
2017-12-02T06:00:56.776Z,0.40
2017-12-02T06:03:24.293Z,0.40
2017-12-02T06:05:51.783Z,0.50
2017-12-02T06:08:19.287Z,0.50
2017-12-02T06:10:46.763Z,0.50
2017-12-02T06:13:14.272Z,0.40
2017-12-02T06:15:41.755Z,0.40
2017-12-02T06:18:09.263Z,0.30
2017-12-02T06:20:36.755Z,0.20
2017-12-02T06:23:04.254Z,0.20
2017-12-02T06:25:31.743Z,0.20
2017-12-02T06:27:59.225Z,0.30
2017-12-02T06:30:26.735Z,0.40
2017-12-02T06:32:54.997Z,0.40
2017-12-02T06:35:22.500Z,0.40
2017-12-02T06:37:49.982Z,0.40
2017-12-02T06:40:18.243Z,0.50
2017-12-02T06:42:45.727Z,0.40
2017-12-02T06:45:13.999Z,0.50
2017-12-02T06:47:41.483Z,0.40
2017-12-02T06:50:09.776Z,0.50
2017-12-02T06:52:38.188Z,0.50
2017-12-02T06:55:05.690Z,0.50
2017-12-02T06:57:33.175Z,0.60
2017-12-02T07:00:00.676Z,0.50
2017-12-02T07:02:28.950Z,0.60
2017-12-02T07:04:56.457Z,0.50
2017-12-02T07:07:23.940Z,0.50
2017-12-02T07:09:51.450Z,0.50
2017-12-02T07:12:18.933Z,0.60
2017-12-02T07:14:46.427Z,0.60
2017-12-02T07:17:14.680Z,0.60
2017-12-02T07:19:42.196Z,0.50
2017-12-02T07:22:09.691Z,0.50
2017-12-02T07:24:37.200Z,0.60
2017-12-02T07:27:04.679Z,0.60
2017-12-02T07:29:32.944Z,0.50
2017-12-02T07:32:00.424Z,0.50
2017-12-02T07:34:27.933Z,0.50
2017-12-02T07:36:55.416Z,0.50
2017-12-02T07:39:22.919Z,0.50
2017-12-02T07:41:50.404Z,0.50
2017-12-02T07:44:17.920Z,0.50
2017-12-02T07:46:45.413Z,0.40
2017-12-02T07:49:13.820Z,0.50
2017-12-02T07:51:41.322Z,0.50
2017-12-02T07:54:09.652Z,0.60
2017-12-02T07:56:37.112Z,0.50
2017-12-02T07:59:04.654Z,0.50
2017-12-02T08:01:32.907Z,0.60
2017-12-02T08:04:00.496Z,0.60
2017-12-02T08:06:27.984Z,0.70
2017-12-02T08:08:56.267Z,0.80
2017-12-02T08:11:23.748Z,0.70
2017-12-02T08:13:52.024Z,0.90
2017-12-02T08:16:19.519Z,0.90
2017-12-02T08:18:47.023Z,0.90
2017-12-02T08:21:14.520Z,1.00
2017-12-02T08:23:42.024Z,0.90
2017-12-02T08:26:10.285Z,0.70
2017-12-02T08:28:37.801Z,0.70
2017-12-02T08:31:05.280Z,0.70
2017-12-02T08:33:32.767Z,0.70
2017-12-02T08:36:00.277Z,0.70
2017-12-02T08:38:28.532Z,0.70
2017-12-02T08:40:56.032Z,0.60
2017-12-02T08:43:23.512Z,0.80
2017-12-02T08:45:51.780Z,0.80
2017-12-02T08:48:19.258Z,0.80
2017-12-02T08:50:46.771Z,0.80
2017-12-02T08:53:14.255Z,0.90
2017-12-02T08:55:41.764Z,0.90
2017-12-02T08:58:09.260Z,0.90
2017-12-02T09:00:37.535Z,1.00
2017-12-02T09:03:05.788Z,1.00
2017-12-02T09:05:33.304Z,0.90
2017-12-02T09:08:01.556Z,1.10
2017-12-02T09:10:29.055Z,1.00
2017-12-02T09:12:57.308Z,1.00
2017-12-02T09:15:24.812Z,1.00
2017-12-02T09:17:53.060Z,1.10
2017-12-02T09:20:20.559Z,1.10
2017-12-02T09:22:48.036Z,1.10
2017-12-02T09:25:16.308Z,1.00
2017-12-02T09:27:43.803Z,1.00
2017-12-02T09:30:12.071Z,1.20
2017-12-02T09:32:40.353Z,1.10
2017-12-02T09:35:07.852Z,1.10
2017-12-02T09:37:36.123Z,1.00
2017-12-02T09:40:04.391Z,1.00
2017-12-02T09:42:31.886Z,1.00
2017-12-02T09:45:00.158Z,1.00
2017-12-02T09:47:27.640Z,0.90
2017-12-02T09:49:55.143Z,1.10
2017-12-02T09:52:22.627Z,1.10
2017-12-02T09:54:50.128Z,1.20
2017-12-02T09:57:17.625Z,1.30
2017-12-02T09:59:45.891Z,1.30
2017-12-02T10:02:13.384Z,1.20
2017-12-02T10:04:41.661Z,1.30
2017-12-02T10:07:09.178Z,1.20
2017-12-02T10:09:36.691Z,1.20
2017-12-02T10:12:04.177Z,1.30
2017-12-02T10:14:31.682Z,1.30
2017-12-02T10:16:59.175Z,1.30
2017-12-02T10:19:26.655Z,1.40
2017-12-02T10:21:54.158Z,1.50
2017-12-02T10:24:21.652Z,1.50
2017-12-02T10:26:49.161Z,1.40
2017-12-02T10:29:16.655Z,1.50
2017-12-02T10:31:44.166Z,1.50
2017-12-02T10:34:11.654Z,1.60
2017-12-02T10:36:39.160Z,1.60
2017-12-02T10:39:08.651Z,1.60
2017-12-02T10:41:36.168Z,1.60
2017-12-02T10:44:03.656Z,1.60
2017-12-02T10:46:31.924Z,1.70
2017-12-02T10:48:59.403Z,1.60
2017-12-02T10:51:27.671Z,1.60
2017-12-02T10:53:55.155Z,1.60
2017-12-02T10:56:22.656Z,1.80
2017-12-02T10:58:50.143Z,1.80
2017-12-02T11:01:17.639Z,1.80
2017-12-02T11:03:45.129Z,1.70
2017-12-02T11:06:12.635Z,1.80
2017-12-02T11:08:40.123Z,1.80
2017-12-02T11:11:07.623Z,1.70
2017-12-02T11:13:35.103Z,1.70
2017-12-02T11:16:02.615Z,1.70
2017-12-02T11:18:30.095Z,1.70
2017-12-02T11:20:57.582Z,1.80
2017-12-02T11:23:25.088Z,1.80
2017-12-02T11:25:53.357Z,1.80
2017-12-02T11:28:20.860Z,1.80
2017-12-02T11:30:49.119Z,1.80
2017-12-02T11:33:16.627Z,1.80
2017-12-02T11:35:44.880Z,1.70
2017-12-02T11:38:12.379Z,1.60
2017-12-02T11:40:40.662Z,1.60
2017-12-02T11:43:08.947Z,1.70
2017-12-02T11:45:37.207Z,1.70
2017-12-02T11:48:04.717Z,1.70
2017-12-02T11:50:32.960Z,1.80
2017-12-02T11:53:00.472Z,1.80
2017-12-02T11:55:28.732Z,1.90
2017-12-02T11:57:56.231Z,1.80
2017-12-02T12:00:24.480Z,1.90
2017-12-02T12:02:51.980Z,1.90
2017-12-02T12:05:19.463Z,1.90
2017-12-02T12:07:47.739Z,1.90
2017-12-02T12:10:15.228Z,1.80
2017-12-02T12:12:43.495Z,1.80
2017-12-02T12:15:10.979Z,1.80
2017-12-02T12:17:38.493Z,1.90
2017-12-02T12:20:05.980Z,1.80
2017-12-02T12:22:33.458Z,1.80
2017-12-02T12:25:00.968Z,1.90
2017-12-02T12:27:29.220Z,1.80
2017-12-02T12:29:56.723Z,1.80
2017-12-02T12:32:24.216Z,1.80
2017-12-02T12:34:52.488Z,1.90
2017-12-02T12:37:19.976Z,1.90
2017-12-02T12:39:47.476Z,1.90
2017-12-02T12:42:14.959Z,1.90
2017-12-02T12:44:42.468Z,2.00
2017-12-02T12:47:09.948Z,1.90
2017-12-02T12:49:37.452Z,1.90
2017-12-02T12:52:04.941Z,2.00
2017-12-02T12:54:32.451Z,2.00
2017-12-02T12:56:59.936Z,2.00
2017-12-02T12:59:27.464Z,2.10
2017-12-02T13:01:54.953Z,2.10
2017-12-02T13:04:23.239Z,2.00
2017-12-02T13:06:51.488Z,2.00
2017-12-02T13:09:19.047Z,1.90
2017-12-02T13:11:46.496Z,2.00
2017-12-02T13:14:13.996Z,2.00
2017-12-02T13:16:41.479Z,2.00
2017-12-02T13:19:08.963Z,2.00
2017-12-02T13:21:36.466Z,2.00
2017-12-02T13:24:03.951Z,1.90
2017-12-02T13:26:31.474Z,1.90
2017-12-02T13:28:59.729Z,1.90
2017-12-02T13:31:27.240Z,1.80
2017-12-02T13:33:55.495Z,1.90
2017-12-02T13:36:23.011Z,1.80
2017-12-02T13:38:50.513Z,1.90
2017-12-02T13:41:18.069Z,1.90
2017-12-02T13:43:45.560Z,2.00
2017-12-02T13:46:13.067Z,2.00
2017-12-02T13:48:40.551Z,2.00
2017-12-02T13:51:08.059Z,2.00
2017-12-02T13:53:35.548Z,2.00
2017-12-02T13:56:03.047Z,2.00
2017-12-02T13:58:30.573Z,2.00
2017-12-02T14:00:58.529Z,2.00
2017-12-02T14:03:26.764Z,1.90
2017-12-02T14:05:54.288Z,1.80
2017-12-02T14:08:21.778Z,1.90
2017-12-02T14:10:49.304Z,1.80
2017-12-02T14:13:17.551Z,1.90
2017-12-02T14:15:45.063Z,1.80
2017-12-02T14:18:13.325Z,2.00
2017-12-02T14:20:40.822Z,1.90
2017-12-02T14:23:09.159Z,1.80
2017-12-02T14:25:36.636Z,1.80
2017-12-02T14:28:04.143Z,1.70
2017-12-02T14:30:31.635Z,1.70
2017-12-02T14:33:00.765Z,1.50
2017-12-02T14:35:28.256Z,1.40
2017-12-02T14:37:55.763Z,1.40
2017-12-02T14:40:23.243Z,1.40
2017-12-02T14:42:50.754Z,1.30
2017-12-02T14:45:18.236Z,1.30
2017-12-02T14:47:45.741Z,1.20
2017-12-02T14:50:13.224Z,1.10
2017-12-02T14:52:41.504Z,1.00
2017-12-02T14:55:09.781Z,1.00
2017-12-02T14:57:38.269Z,1.00
2017-12-02T15:00:05.768Z,1.00
2017-12-02T15:02:34.047Z,1.10
2017-12-02T15:05:01.533Z,1.10
2017-12-02T15:07:29.808Z,1.00
2017-12-02T15:09:58.065Z,1.00
2017-12-02T15:12:25.571Z,1.00
2017-12-02T15:14:53.882Z,0.90
2017-12-02T15:17:21.395Z,0.90
2017-12-02T15:19:48.882Z,0.90
2017-12-02T15:22:16.364Z,0.80
2017-12-02T15:24:43.861Z,0.70
2017-12-02T15:27:11.343Z,0.60
2017-12-02T15:29:38.843Z,0.50
2017-12-02T15:32:06.331Z,0.50
2017-12-02T15:34:33.832Z,0.40
2017-12-02T15:37:02.081Z,0.30
2017-12-02T15:39:29.587Z,0.30
2017-12-02T15:41:57.844Z,0.20
2017-12-02T15:44:25.351Z,0.20
2017-12-02T15:46:53.600Z,0.30
2017-12-02T15:49:21.109Z,0.20
2017-12-02T15:51:49.369Z,0.30
2017-12-02T15:54:16.884Z,0.30
2017-12-02T15:56:44.363Z,0.40
2017-12-02T15:59:11.864Z,0.40
2017-12-02T16:01:39.352Z,0.30
2017-12-02T16:04:06.851Z,0.30
2017-12-02T16:06:34.369Z,0.30
2017-12-02T16:09:01.868Z,0.40
2017-12-02T16:11:29.351Z,0.30
2017-12-02T16:13:57.615Z,0.30
2017-12-02T16:16:25.102Z,0.30
2017-12-02T16:18:53.376Z,0.40
2017-12-02T16:21:20.860Z,0.30
2017-12-02T16:24:00.657Z,0.40
2017-12-02T16:26:28.135Z,0.40
2017-12-02T16:28:55.636Z,0.40
2017-12-02T16:31:23.140Z,0.40
2017-12-02T16:33:51.392Z,0.20
2017-12-02T16:36:18.899Z,0.20
2017-12-02T16:38:47.143Z,0.20
2017-12-02T16:41:14.751Z,0.10
2017-12-02T16:43:42.260Z,0.30
2017-12-02T16:46:09.834Z,0.30
2017-12-02T16:48:37.359Z,0.30
2017-12-02T16:51:10.528Z,0.20
2017-12-02T16:53:38.009Z,0.20
2017-12-02T16:56:05.551Z,0.10
2017-12-02T16:58:33.031Z,0.20
2017-12-02T17:01:00.617Z,0.10
2017-12-02T17:03:28.104Z,0.00
2017-12-02T17:05:55.612Z,0.00
2017-12-02T17:08:23.095Z,0.00
2017-12-02T17:10:50.607Z,-0.10
2017-12-02T17:13:18.096Z,0.00
2017-12-02T17:15:46.368Z,0.20
2017-12-02T17:18:13.862Z,0.10
2017-12-02T17:20:44.048Z,0.20
2017-12-02T17:23:11.529Z,0.20
2017-12-02T17:25:39.039Z,0.20
2017-12-02T17:28:12.487Z,0.10
2017-12-02T17:30:39.999Z,0.10
2017-12-02T17:33:07.486Z,0.00
2017-12-02T17:35:35.767Z,0.00
2017-12-02T17:38:03.257Z,-0.10
2017-12-02T17:40:30.770Z,0.00
2017-12-02T17:42:58.254Z,0.00
2017-12-02T17:45:25.752Z,-0.10
2017-12-02T17:47:54.017Z,-0.10
2017-12-02T17:50:21.523Z,-0.10
2017-12-02T17:52:50.903Z,0.00
2017-12-02T17:55:18.432Z,-0.10
2017-12-02T17:57:45.981Z,0.00
2017-12-02T18:00:13.520Z,0.00
2017-12-02T18:02:41.042Z,0.00
2017-12-02T18:05:08.674Z,-0.10
2017-12-02T18:07:37.061Z,0.00
2017-12-02T18:10:04.634Z,0.00
2017-12-02T18:12:32.152Z,0.00
2017-12-02T18:14:59.765Z,0.00
2017-12-02T18:17:27.313Z,0.00
2017-12-02T18:19:54.846Z,0.00
2017-12-02T18:22:22.373Z,0.00
2017-12-02T18:24:49.913Z,0.00
2017-12-02T18:27:17.424Z,0.00
2017-12-02T18:29:45.041Z,0.10
2017-12-02T18:32:12.637Z,0.10
2017-12-02T18:34:40.180Z,0.20
2017-12-02T18:37:07.680Z,0.20
2017-12-02T18:39:35.365Z,0.20
2017-12-02T18:42:02.900Z,0.10
2017-12-02T18:44:30.468Z,0.00
2017-12-02T18:46:58.035Z,-0.10
2017-12-02T18:49:25.535Z,-0.20
2017-12-02T18:51:53.089Z,-0.20
2017-12-02T18:54:20.593Z,-0.10
2017-12-02T18:56:48.105Z,-0.10
2017-12-02T18:59:16.368Z,0.00
2017-12-02T19:01:44.101Z,0.00
2017-12-02T19:04:11.593Z,0.10
2017-12-02T19:06:39.462Z,0.10
2017-12-02T19:09:06.961Z,0.10
2017-12-02T19:11:34.486Z,0.10
2017-12-02T19:14:01.980Z,0.20
2017-12-02T19:16:29.479Z,0.10
2017-12-02T19:18:56.968Z,0.20
2017-12-02T19:21:25.252Z,0.10
2017-12-02T19:23:53.500Z,0.10
2017-12-02T19:26:21.000Z,0.10
2017-12-02T19:28:48.490Z,0.20
2017-12-02T19:31:17.488Z,0.20
2017-12-02T19:33:51.806Z,0.30
2017-12-02T19:36:19.332Z,0.20
2017-12-02T19:38:46.816Z,0.30
2017-12-02T19:41:14.323Z,0.30
2017-12-02T19:43:41.812Z,0.30
2017-12-02T19:46:10.084Z,0.30
2017-12-02T19:48:38.339Z,0.40
2017-12-02T19:51:05.844Z,0.30
2017-12-02T19:53:34.096Z,0.40
2017-12-02T19:56:01.600Z,0.30
2017-12-02T19:58:29.847Z,0.40
2017-12-02T20:00:57.344Z,0.30
2017-12-02T20:03:24.824Z,0.30
2017-12-02T20:05:52.333Z,0.40
2017-12-02T20:08:19.815Z,0.40
2017-12-02T20:10:47.316Z,0.50
2017-12-02T20:13:14.795Z,0.60
2017-12-02T20:15:42.310Z,0.50
2017-12-02T20:18:09.801Z,0.50
2017-12-02T20:20:37.319Z,0.50
2017-12-02T20:23:05.571Z,0.50
2017-12-02T20:25:33.098Z,0.50
2017-12-02T20:28:00.588Z,0.50
2017-12-02T20:30:28.164Z,0.50
2017-12-02T20:32:55.650Z,0.50
2017-12-02T20:35:23.155Z,0.40
2017-12-02T20:37:50.635Z,0.40
2017-12-02T20:40:18.912Z,0.30
2017-12-02T20:42:46.408Z,0.30
2017-12-02T20:45:13.988Z,0.40
2017-12-02T20:47:41.472Z,0.40
2017-12-02T20:50:08.980Z,0.50
2017-12-02T20:52:36.464Z,0.50
2017-12-02T20:55:03.954Z,0.50
2017-12-02T20:57:32.232Z,0.50
2017-12-02T21:00:00.489Z,0.50
2017-12-02T21:02:27.992Z,0.40
2017-12-02T21:05:02.243Z,0.50
2017-12-02T21:07:29.753Z,0.50
2017-12-02T21:09:57.248Z,0.50
2017-12-02T21:12:24.759Z,0.60
2017-12-02T21:14:52.239Z,0.60
2017-12-02T21:17:19.757Z,0.50
2017-12-02T21:19:47.247Z,0.60
2017-12-02T21:22:15.519Z,0.60
2017-12-02T21:24:43.010Z,0.60
2017-12-02T21:27:10.531Z,0.60
2017-12-02T21:29:38.027Z,0.60
2017-12-02T21:32:05.535Z,0.70
2017-12-02T21:34:33.023Z,0.70
2017-12-02T21:37:00.913Z,0.70
2017-12-02T21:39:28.399Z,0.80
2017-12-02T21:41:55.908Z,0.80
2017-12-02T21:44:24.150Z,0.80
2017-12-02T21:46:51.662Z,0.70
2017-12-02T21:49:19.152Z,0.90
2017-12-02T21:51:46.677Z,0.80
2017-12-02T21:54:14.163Z,0.70
2017-12-02T21:56:41.667Z,0.70
2017-12-02T21:59:09.164Z,0.70
2017-12-02T22:01:36.674Z,0.70
2017-12-02T22:04:04.176Z,0.80
2017-12-02T22:06:31.686Z,0.70
2017-12-02T22:08:59.180Z,0.70
2017-12-02T22:11:26.692Z,0.80
2017-12-02T22:13:54.192Z,0.70
2017-12-02T22:16:21.708Z,0.70
2017-12-02T22:18:49.968Z,0.80
2017-12-02T22:21:25.288Z,0.70
2017-12-02T22:23:53.676Z,0.70
2017-12-02T22:26:21.195Z,0.70
2017-12-02T22:28:48.683Z,0.70
2017-12-02T22:31:16.947Z,0.70
2017-12-02T22:33:44.434Z,0.70
2017-12-02T22:36:12.708Z,0.50
2017-12-02T22:38:40.227Z,0.40
2017-12-02T22:41:07.733Z,0.50
2017-12-02T22:43:35.228Z,0.50
2017-12-02T22:46:02.740Z,0.60
2017-12-02T22:48:30.517Z,0.60
2017-12-02T22:50:58.028Z,0.60
2017-12-02T22:53:25.511Z,0.60
2017-12-02T22:55:53.163Z,0.60
2017-12-02T22:58:20.735Z,0.60
2017-12-02T23:00:48.278Z,0.70
2017-12-02T23:03:16.711Z,0.70
2017-12-02T23:05:47.982Z,0.60
2017-12-02T23:08:35.558Z,0.60
2017-12-02T23:11:03.107Z,0.60
2017-12-02T23:13:37.761Z,0.60
2017-12-02T23:16:05.279Z,0.60
2017-12-02T23:18:32.791Z,0.60
2017-12-02T23:21:01.082Z,0.70
2017-12-02T23:23:29.337Z,0.60
2017-12-02T23:26:02.016Z,0.60
2017-12-02T23:28:29.498Z,0.70
2017-12-02T23:30:57.003Z,0.70
2017-12-02T23:33:25.260Z,0.80
2017-12-02T23:35:52.776Z,0.70
2017-12-02T23:38:20.260Z,0.70
2017-12-02T23:40:48.524Z,0.70
2017-12-02T23:43:16.770Z,0.70
2017-12-02T23:45:44.256Z,0.60
2017-12-02T23:48:11.759Z,0.70
2017-12-02T23:50:39.243Z,0.70
2017-12-02T23:53:06.743Z,0.70
2017-12-02T23:55:34.233Z,0.60
2017-12-02T23:58:01.731Z,0.70
